sensor_id;sensor_type;location;lat;lon;timestamp;P1;durP1;ratioP1;P2;durP2;ratioP2
41875;SDS011;27555;50.808;4.402;2023-05-07T00:00:01;8.55;;;3.25;;
41875;SDS011;27555;50.808;4.402;2023-05-07T00:02:28;9.57;;;2.92;;
41875;SDS011;27555;50.808;4.402;2023-05-07T00:04:54;10.55;;;3.03;;
41875;SDS011;27555;50.808;4.402;2023-05-07T00:07:20;8.27;;;2.20;;
41875;SDS011;27555;50.808;4.402;2023-05-07T00:09:46;9.88;;;2.85;;
41875;SDS011;27555;50.808;4.402;2023-05-07T00:12:11;6.43;;;2.42;;
41875;SDS011;27555;50.808;4.402;2023-05-07T00:14:37;10.57;;;2.63;;
41875;SDS011;27555;50.808;4.402;2023-05-07T00:17:03;9.07;;;2.33;;
41875;SDS011;27555;50.808;4.402;2023-05-07T00:19:28;7.95;;;2.67;;
41875;SDS011;27555;50.808;4.402;2023-05-07T00:21:54;5.43;;;2.40;;
41875;SDS011;27555;50.808;4.402;2023-05-07T00:24:20;9.70;;;3.25;;
41875;SDS011;27555;50.808;4.402;2023-05-07T00:26:46;8.43;;;2.78;;
41875;SDS011;27555;50.808;4.402;2023-05-07T00:29:12;7.00;;;2.38;;
41875;SDS011;27555;50.808;4.402;2023-05-07T00:31:37;8.57;;;2.40;;
41875;SDS011;27555;50.808;4.402;2023-05-07T00:34:03;8.25;;;2.45;;
41875;SDS011;27555;50.808;4.402;2023-05-07T00:36:29;7.82;;;2.15;;
41875;SDS011;27555;50.808;4.402;2023-05-07T00:38:56;10.23;;;3.00;;
41875;SDS011;27555;50.808;4.402;2023-05-07T00:41:24;6.22;;;2.70;;
41875;SDS011;27555;50.808;4.402;2023-05-07T00:43:49;9.32;;;2.60;;
41875;SDS011;27555;50.808;4.402;2023-05-07T00:46:16;7.30;;;2.33;;
41875;SDS011;27555;50.808;4.402;2023-05-07T00:48:43;12.27;;;3.05;;
41875;SDS011;27555;50.808;4.402;2023-05-07T00:51:09;10.90;;;2.97;;
41875;SDS011;27555;50.808;4.402;2023-05-07T00:53:36;9.40;;;2.83;;
41875;SDS011;27555;50.808;4.402;2023-05-07T00:56:02;6.50;;;2.92;;
41875;SDS011;27555;50.808;4.402;2023-05-07T00:58:28;7.15;;;2.38;;
41875;SDS011;27555;50.808;4.402;2023-05-07T01:00:53;10.88;;;2.45;;
41875;SDS011;27555;50.808;4.402;2023-05-07T01:03:19;7.22;;;2.75;;
41875;SDS011;27555;50.808;4.402;2023-05-07T01:05:46;7.65;;;2.13;;
41875;SDS011;27555;50.808;4.402;2023-05-07T01:08:13;10.93;;;2.40;;
41875;SDS011;27555;50.808;4.402;2023-05-07T01:10:40;7.50;;;2.83;;
41875;SDS011;27555;50.808;4.402;2023-05-07T01:13:08;9.98;;;3.28;;
41875;SDS011;27555;50.808;4.402;2023-05-07T01:15:37;8.23;;;2.53;;
41875;SDS011;27555;50.808;4.402;2023-05-07T01:18:04;11.55;;;2.65;;
41875;SDS011;27555;50.808;4.402;2023-05-07T01:20:31;10.10;;;2.65;;
41875;SDS011;27555;50.808;4.402;2023-05-07T01:22:57;8.05;;;2.63;;
41875;SDS011;27555;50.808;4.402;2023-05-07T01:25:25;8.48;;;3.35;;
41875;SDS011;27555;50.808;4.402;2023-05-07T01:27:50;5.13;;;2.53;;
41875;SDS011;27555;50.808;4.402;2023-05-07T01:30:16;11.07;;;2.92;;
41875;SDS011;27555;50.808;4.402;2023-05-07T01:32:46;8.90;;;2.65;;
41875;SDS011;27555;50.808;4.402;2023-05-07T01:35:19;14.32;;;3.05;;
41875;SDS011;27555;50.808;4.402;2023-05-07T01:37:47;9.38;;;2.60;;
41875;SDS011;27555;50.808;4.402;2023-05-07T01:40:14;10.63;;;2.78;;
41875;SDS011;27555;50.808;4.402;2023-05-07T01:42:41;6.32;;;2.22;;
41875;SDS011;27555;50.808;4.402;2023-05-07T01:45:08;7.15;;;2.50;;
41875;SDS011;27555;50.808;4.402;2023-05-07T01:47:34;13.93;;;3.03;;
41875;SDS011;27555;50.808;4.402;2023-05-07T01:50:01;11.57;;;3.28;;
41875;SDS011;27555;50.808;4.402;2023-05-07T01:52:28;10.02;;;2.80;;
41875;SDS011;27555;50.808;4.402;2023-05-07T01:54:54;7.30;;;2.72;;
41875;SDS011;27555;50.808;4.402;2023-05-07T01:57:20;8.60;;;2.72;;
41875;SDS011;27555;50.808;4.402;2023-05-07T01:59:45;12.55;;;2.92;;
41875;SDS011;27555;50.808;4.402;2023-05-07T02:02:11;12.95;;;3.10;;
41875;SDS011;27555;50.808;4.402;2023-05-07T02:04:37;9.70;;;2.65;;
41875;SDS011;27555;50.808;4.402;2023-05-07T02:07:02;12.80;;;3.40;;
41875;SDS011;27555;50.808;4.402;2023-05-07T02:09:28;11.02;;;3.05;;
41875;SDS011;27555;50.808;4.402;2023-05-07T02:11:53;6.88;;;2.33;;
41875;SDS011;27555;50.808;4.402;2023-05-07T02:14:19;11.23;;;3.13;;
41875;SDS011;27555;50.808;4.402;2023-05-07T02:16:45;7.85;;;2.65;;
41875;SDS011;27555;50.808;4.402;2023-05-07T02:19:11;8.07;;;2.47;;
41875;SDS011;27555;50.808;4.402;2023-05-07T02:21:36;9.38;;;2.75;;
41875;SDS011;27555;50.808;4.402;2023-05-07T02:24:03;11.85;;;3.95;;
41875;SDS011;27555;50.808;4.402;2023-05-07T02:26:29;11.93;;;3.30;;
41875;SDS011;27555;50.808;4.402;2023-05-07T02:28:55;10.85;;;2.75;;
41875;SDS011;27555;50.808;4.402;2023-05-07T02:31:20;8.38;;;2.63;;
41875;SDS011;27555;50.808;4.402;2023-05-07T02:33:47;12.60;;;3.28;;
41875;SDS011;27555;50.808;4.402;2023-05-07T02:36:13;12.82;;;3.20;;
41875;SDS011;27555;50.808;4.402;2023-05-07T02:38:38;7.95;;;2.90;;
41875;SDS011;27555;50.808;4.402;2023-05-07T02:41:04;8.43;;;3.03;;
41875;SDS011;27555;50.808;4.402;2023-05-07T02:43:30;10.07;;;2.80;;
41875;SDS011;27555;50.808;4.402;2023-05-07T02:46:05;8.82;;;2.97;;
41875;SDS011;27555;50.808;4.402;2023-05-07T02:48:32;14.85;;;3.88;;
41875;SDS011;27555;50.808;4.402;2023-05-07T02:50:58;12.23;;;2.95;;
41875;SDS011;27555;50.808;4.402;2023-05-07T02:53:24;8.05;;;2.30;;
41875;SDS011;27555;50.808;4.402;2023-05-07T02:55:52;7.88;;;3.00;;
41875;SDS011;27555;50.808;4.402;2023-05-07T02:58:25;13.10;;;3.00;;
41875;SDS011;27555;50.808;4.402;2023-05-07T03:00:51;9.48;;;3.58;;
41875;SDS011;27555;50.808;4.402;2023-05-07T03:03:17;10.40;;;2.90;;
41875;SDS011;27555;50.808;4.402;2023-05-07T03:05:43;9.48;;;3.13;;
41875;SDS011;27555;50.808;4.402;2023-05-07T03:08:09;9.73;;;2.83;;
41875;SDS011;27555;50.808;4.402;2023-05-07T03:10:35;10.15;;;3.65;;
41875;SDS011;27555;50.808;4.402;2023-05-07T03:13:01;10.70;;;3.35;;
41875;SDS011;27555;50.808;4.402;2023-05-07T03:15:27;8.98;;;2.35;;
41875;SDS011;27555;50.808;4.402;2023-05-07T03:17:53;9.77;;;2.72;;
41875;SDS011;27555;50.808;4.402;2023-05-07T03:20:18;8.10;;;3.05;;
41875;SDS011;27555;50.808;4.402;2023-05-07T03:22:44;11.35;;;3.05;;
41875;SDS011;27555;50.808;4.402;2023-05-07T03:25:10;11.15;;;2.58;;
41875;SDS011;27555;50.808;4.402;2023-05-07T03:27:35;14.45;;;3.05;;
41875;SDS011;27555;50.808;4.402;2023-05-07T03:30:01;9.48;;;2.70;;
41875;SDS011;27555;50.808;4.402;2023-05-07T03:32:27;7.95;;;3.15;;
41875;SDS011;27555;50.808;4.402;2023-05-07T03:34:53;6.75;;;2.90;;
41875;SDS011;27555;50.808;4.402;2023-05-07T03:37:19;12.20;;;2.85;;
41875;SDS011;27555;50.808;4.402;2023-05-07T03:39:45;10.10;;;3.22;;
41875;SDS011;27555;50.808;4.402;2023-05-07T03:42:11;9.25;;;2.90;;
41875;SDS011;27555;50.808;4.402;2023-05-07T03:44:38;7.55;;;2.83;;
41875;SDS011;27555;50.808;4.402;2023-05-07T03:47:04;9.98;;;3.38;;
41875;SDS011;27555;50.808;4.402;2023-05-07T03:49:29;12.50;;;3.35;;
41875;SDS011;27555;50.808;4.402;2023-05-07T03:51:55;6.50;;;2.38;;
41875;SDS011;27555;50.808;4.402;2023-05-07T03:54:21;8.25;;;3.05;;
41875;SDS011;27555;50.808;4.402;2023-05-07T03:56:47;10.45;;;3.03;;
41875;SDS011;27555;50.808;4.402;2023-05-07T03:59:13;9.48;;;2.75;;
41875;SDS011;27555;50.808;4.402;2023-05-07T04:01:38;5.75;;;2.28;;
41875;SDS011;27555;50.808;4.402;2023-05-07T04:04:05;7.45;;;3.13;;
41875;SDS011;27555;50.808;4.402;2023-05-07T04:06:30;9.10;;;2.80;;
41875;SDS011;27555;50.808;4.402;2023-05-07T04:08:56;9.80;;;3.05;;
41875;SDS011;27555;50.808;4.402;2023-05-07T04:11:22;9.20;;;2.95;;
41875;SDS011;27555;50.808;4.402;2023-05-07T04:13:48;8.35;;;3.47;;
41875;SDS011;27555;50.808;4.402;2023-05-07T04:16:14;10.63;;;3.35;;
41875;SDS011;27555;50.808;4.402;2023-05-07T04:18:39;6.55;;;2.80;;
41875;SDS011;27555;50.808;4.402;2023-05-07T04:21:05;7.38;;;2.47;;
41875;SDS011;27555;50.808;4.402;2023-05-07T04:23:38;9.02;;;3.08;;
41875;SDS011;27555;50.808;4.402;2023-05-07T04:26:03;13.85;;;3.10;;
41875;SDS011;27555;50.808;4.402;2023-05-07T04:28:29;8.93;;;3.30;;
41875;SDS011;27555;50.808;4.402;2023-05-07T04:30:55;9.35;;;2.60;;
41875;SDS011;27555;50.808;4.402;2023-05-07T04:33:20;10.00;;;3.10;;
41875;SDS011;27555;50.808;4.402;2023-05-07T04:35:46;7.72;;;2.75;;
41875;SDS011;27555;50.808;4.402;2023-05-07T04:38:12;10.32;;;2.97;;
41875;SDS011;27555;50.808;4.402;2023-05-07T04:40:37;7.38;;;2.25;;
41875;SDS011;27555;50.808;4.402;2023-05-07T04:43:04;7.20;;;2.90;;
41875;SDS011;27555;50.808;4.402;2023-05-07T04:45:29;8.77;;;2.33;;
41875;SDS011;27555;50.808;4.402;2023-05-07T04:47:55;7.13;;;2.60;;
41875;SDS011;27555;50.808;4.402;2023-05-07T04:50:20;7.13;;;3.00;;
41875;SDS011;27555;50.808;4.402;2023-05-07T04:52:48;7.22;;;2.85;;
41875;SDS011;27555;50.808;4.402;2023-05-07T04:55:14;6.25;;;2.75;;
41875;SDS011;27555;50.808;4.402;2023-05-07T04:57:39;10.77;;;2.92;;
41875;SDS011;27555;50.808;4.402;2023-05-07T05:00:06;14.50;;;3.15;;
41875;SDS011;27555;50.808;4.402;2023-05-07T05:02:33;8.02;;;2.65;;
41875;SDS011;27555;50.808;4.402;2023-05-07T05:05:00;6.93;;;2.55;;
41875;SDS011;27555;50.808;4.402;2023-05-07T05:07:27;9.75;;;2.90;;
41875;SDS011;27555;50.808;4.402;2023-05-07T05:09:53;9.30;;;2.63;;
41875;SDS011;27555;50.808;4.402;2023-05-07T05:12:19;7.18;;;3.22;;
41875;SDS011;27555;50.808;4.402;2023-05-07T05:14:45;9.55;;;2.92;;
41875;SDS011;27555;50.808;4.402;2023-05-07T05:17:10;9.45;;;2.97;;
41875;SDS011;27555;50.808;4.402;2023-05-07T05:19:36;8.30;;;2.45;;
41875;SDS011;27555;50.808;4.402;2023-05-07T05:22:02;5.88;;;2.47;;
41875;SDS011;27555;50.808;4.402;2023-05-07T05:24:28;6.32;;;2.63;;
41875;SDS011;27555;50.808;4.402;2023-05-07T05:26:55;8.18;;;2.90;;
41875;SDS011;27555;50.808;4.402;2023-05-07T05:29:21;6.60;;;3.10;;
41875;SDS011;27555;50.808;4.402;2023-05-07T05:31:46;8.00;;;2.88;;
41875;SDS011;27555;50.808;4.402;2023-05-07T05:34:12;5.53;;;2.35;;
41875;SDS011;27555;50.808;4.402;2023-05-07T05:36:38;7.93;;;2.42;;
41875;SDS011;27555;50.808;4.402;2023-05-07T05:39:03;6.53;;;2.70;;
41875;SDS011;27555;50.808;4.402;2023-05-07T05:41:29;6.93;;;2.65;;
41875;SDS011;27555;50.808;4.402;2023-05-07T05:43:55;11.10;;;2.60;;
41875;SDS011;27555;50.808;4.402;2023-05-07T05:46:22;8.63;;;2.58;;
41875;SDS011;27555;50.808;4.402;2023-05-07T05:48:47;5.82;;;2.35;;
41875;SDS011;27555;50.808;4.402;2023-05-07T05:51:13;6.97;;;2.35;;
41875;SDS011;27555;50.808;4.402;2023-05-07T05:53:38;5.75;;;2.40;;
41875;SDS011;27555;50.808;4.402;2023-05-07T05:56:04;8.10;;;2.80;;
41875;SDS011;27555;50.808;4.402;2023-05-07T05:58:30;7.28;;;2.30;;
41875;SDS011;27555;50.808;4.402;2023-05-07T06:00:56;8.00;;;2.50;;
41875;SDS011;27555;50.808;4.402;2023-05-07T06:03:23;9.65;;;2.42;;
41875;SDS011;27555;50.808;4.402;2023-05-07T06:05:51;7.05;;;2.58;;
41875;SDS011;27555;50.808;4.402;2023-05-07T06:08:16;11.15;;;3.40;;
41875;SDS011;27555;50.808;4.402;2023-05-07T06:10:43;11.05;;;2.78;;
41875;SDS011;27555;50.808;4.402;2023-05-07T06:13:15;18.42;;;3.33;;
41875;SDS011;27555;50.808;4.402;2023-05-07T06:15:40;23.35;;;7.18;;
41875;SDS011;27555;50.808;4.402;2023-05-07T06:18:06;8.15;;;2.25;;
41875;SDS011;27555;50.808;4.402;2023-05-07T06:20:32;10.27;;;3.28;;
41875;SDS011;27555;50.808;4.402;2023-05-07T06:22:57;9.80;;;3.35;;
41875;SDS011;27555;50.808;4.402;2023-05-07T06:25:23;12.27;;;3.20;;
41875;SDS011;27555;50.808;4.402;2023-05-07T06:27:48;11.40;;;3.03;;
41875;SDS011;27555;50.808;4.402;2023-05-07T06:30:14;10.73;;;3.65;;
41875;SDS011;27555;50.808;4.402;2023-05-07T06:32:40;8.60;;;3.28;;
41875;SDS011;27555;50.808;4.402;2023-05-07T06:35:06;10.18;;;3.05;;
41875;SDS011;27555;50.808;4.402;2023-05-07T06:37:32;12.23;;;4.07;;
41875;SDS011;27555;50.808;4.402;2023-05-07T06:39:57;5.30;;;2.85;;
41875;SDS011;27555;50.808;4.402;2023-05-07T06:42:23;12.52;;;3.75;;
41875;SDS011;27555;50.808;4.402;2023-05-07T06:44:50;11.10;;;3.50;;
41875;SDS011;27555;50.808;4.402;2023-05-07T06:47:15;11.20;;;4.28;;
41875;SDS011;27555;50.808;4.402;2023-05-07T06:49:41;11.27;;;3.50;;
41875;SDS011;27555;50.808;4.402;2023-05-07T06:52:07;16.67;;;4.15;;
41875;SDS011;27555;50.808;4.402;2023-05-07T06:54:32;9.18;;;4.10;;
41875;SDS011;27555;50.808;4.402;2023-05-07T06:56:58;11.85;;;4.28;;
41875;SDS011;27555;50.808;4.402;2023-05-07T06:59:24;14.63;;;4.00;;
41875;SDS011;27555;50.808;4.402;2023-05-07T07:01:49;10.68;;;3.40;;
41875;SDS011;27555;50.808;4.402;2023-05-07T07:04:15;10.50;;;3.58;;
41875;SDS011;27555;50.808;4.402;2023-05-07T07:06:40;13.98;;;3.97;;
41875;SDS011;27555;50.808;4.402;2023-05-07T07:09:06;19.65;;;4.22;;
41875;SDS011;27555;50.808;4.402;2023-05-07T07:11:32;7.68;;;3.33;;
41875;SDS011;27555;50.808;4.402;2023-05-07T07:13:57;9.23;;;3.15;;
41875;SDS011;27555;50.808;4.402;2023-05-07T07:16:24;7.80;;;3.50;;
41875;SDS011;27555;50.808;4.402;2023-05-07T07:18:49;12.30;;;3.85;;
41875;SDS011;27555;50.808;4.402;2023-05-07T07:21:15;7.60;;;3.50;;
41875;SDS011;27555;50.808;4.402;2023-05-07T07:23:41;12.90;;;4.28;;
41875;SDS011;27555;50.808;4.402;2023-05-07T07:26:06;9.85;;;3.70;;
41875;SDS011;27555;50.808;4.402;2023-05-07T07:28:32;10.75;;;3.88;;
41875;SDS011;27555;50.808;4.402;2023-05-07T07:30:58;9.57;;;3.33;;
41875;SDS011;27555;50.808;4.402;2023-05-07T07:33:23;14.18;;;4.00;;
41875;SDS011;27555;50.808;4.402;2023-05-07T07:35:49;10.73;;;4.78;;
41875;SDS011;27555;50.808;4.402;2023-05-07T07:38:15;7.22;;;3.42;;
41875;SDS011;27555;50.808;4.402;2023-05-07T07:40:40;12.32;;;4.13;;
41875;SDS011;27555;50.808;4.402;2023-05-07T07:43:06;11.30;;;4.28;;
41875;SDS011;27555;50.808;4.402;2023-05-07T07:45:32;6.78;;;3.70;;
41875;SDS011;27555;50.808;4.402;2023-05-07T07:47:57;9.85;;;4.05;;
41875;SDS011;27555;50.808;4.402;2023-05-07T07:50:23;9.50;;;3.42;;
41875;SDS011;27555;50.808;4.402;2023-05-07T07:52:48;6.20;;;3.03;;
41875;SDS011;27555;50.808;4.402;2023-05-07T07:55:14;11.35;;;3.75;;
41875;SDS011;27555;50.808;4.402;2023-05-07T07:57:45;7.78;;;3.35;;
41875;SDS011;27555;50.808;4.402;2023-05-07T08:00:11;9.55;;;3.75;;
41875;SDS011;27555;50.808;4.402;2023-05-07T08:02:37;11.18;;;3.80;;
41875;SDS011;27555;50.808;4.402;2023-05-07T08:05:03;9.85;;;4.13;;
41875;SDS011;27555;50.808;4.402;2023-05-07T08:07:29;9.00;;;3.47;;
41875;SDS011;27555;50.808;4.402;2023-05-07T08:09:54;5.45;;;2.90;;
41875;SDS011;27555;50.808;4.402;2023-05-07T08:12:20;7.82;;;2.95;;
41875;SDS011;27555;50.808;4.402;2023-05-07T08:14:47;8.88;;;3.22;;
41875;SDS011;27555;50.808;4.402;2023-05-07T08:17:13;7.88;;;2.97;;
41875;SDS011;27555;50.808;4.402;2023-05-07T08:19:40;5.22;;;2.88;;
41875;SDS011;27555;50.808;4.402;2023-05-07T08:22:06;8.48;;;3.35;;
41875;SDS011;27555;50.808;4.402;2023-05-07T08:24:32;16.67;;;4.15;;
41875;SDS011;27555;50.808;4.402;2023-05-07T08:26:58;9.48;;;3.45;;
41875;SDS011;27555;50.808;4.402;2023-05-07T08:29:23;11.63;;;3.15;;
41875;SDS011;27555;50.808;4.402;2023-05-07T08:31:49;7.72;;;2.78;;
41875;SDS011;27555;50.808;4.402;2023-05-07T08:34:15;8.68;;;2.78;;
41875;SDS011;27555;50.808;4.402;2023-05-07T08:36:40;10.30;;;3.33;;
41875;SDS011;27555;50.808;4.402;2023-05-07T08:39:09;11.77;;;3.13;;
41875;SDS011;27555;50.808;4.402;2023-05-07T08:41:36;12.25;;;3.08;;
41875;SDS011;27555;50.808;4.402;2023-05-07T08:44:02;10.80;;;3.22;;
41875;SDS011;27555;50.808;4.402;2023-05-07T08:46:31;7.78;;;3.15;;
41875;SDS011;27555;50.808;4.402;2023-05-07T08:48:57;6.25;;;2.80;;
41875;SDS011;27555;50.808;4.402;2023-05-07T08:51:23;11.13;;;3.20;;
41875;SDS011;27555;50.808;4.402;2023-05-07T08:53:49;6.00;;;3.05;;
41875;SDS011;27555;50.808;4.402;2023-05-07T08:56:15;4.45;;;2.75;;
41875;SDS011;27555;50.808;4.402;2023-05-07T08:58:44;5.30;;;3.05;;
41875;SDS011;27555;50.808;4.402;2023-05-07T09:01:13;4.93;;;2.78;;
41875;SDS011;27555;50.808;4.402;2023-05-07T09:03:39;5.87;;;2.30;;
41875;SDS011;27555;50.808;4.402;2023-05-07T09:06:06;7.28;;;2.67;;
41875;SDS011;27555;50.808;4.402;2023-05-07T09:08:34;4.40;;;2.13;;
41875;SDS011;27555;50.808;4.402;2023-05-07T09:11:01;5.57;;;2.37;;
41875;SDS011;27555;50.808;4.402;2023-05-07T09:13:27;4.93;;;2.45;;
41875;SDS011;27555;50.808;4.402;2023-05-07T09:15:53;5.75;;;2.85;;
41875;SDS011;27555;50.808;4.402;2023-05-07T09:18:20;11.38;;;2.88;;
41875;SDS011;27555;50.808;4.402;2023-05-07T09:20:48;10.30;;;3.00;;
41875;SDS011;27555;50.808;4.402;2023-05-07T09:23:14;8.48;;;3.05;;
41875;SDS011;27555;50.808;4.402;2023-05-07T09:25:40;7.90;;;2.53;;
41875;SDS011;27555;50.808;4.402;2023-05-07T09:28:05;8.20;;;3.53;;
41875;SDS011;27555;50.808;4.402;2023-05-07T09:30:33;7.60;;;3.20;;
41875;SDS011;27555;50.808;4.402;2023-05-07T09:32:59;8.07;;;3.17;;
41875;SDS011;27555;50.808;4.402;2023-05-07T09:35:26;9.02;;;2.75;;
41875;SDS011;27555;50.808;4.402;2023-05-07T09:37:53;5.25;;;1.92;;
41875;SDS011;27555;50.808;4.402;2023-05-07T09:40:23;11.93;;;2.75;;
41875;SDS011;27555;50.808;4.402;2023-05-07T09:42:53;7.60;;;2.33;;
41875;SDS011;27555;50.808;4.402;2023-05-07T09:45:29;6.60;;;2.33;;
41875;SDS011;27555;50.808;4.402;2023-05-07T09:47:56;5.15;;;2.10;;
41875;SDS011;27555;50.808;4.402;2023-05-07T09:50:36;5.07;;;2.50;;
41875;SDS011;27555;50.808;4.402;2023-05-07T09:53:13;4.95;;;2.47;;
41875;SDS011;27555;50.808;4.402;2023-05-07T09:55:41;5.65;;;2.30;;
41875;SDS011;27555;50.808;4.402;2023-05-07T09:58:07;5.70;;;1.90;;
41875;SDS011;27555;50.808;4.402;2023-05-07T10:00:34;6.85;;;2.08;;
41875;SDS011;27555;50.808;4.402;2023-05-07T10:03:01;4.78;;;2.05;;
41875;SDS011;27555;50.808;4.402;2023-05-07T10:05:27;6.03;;;2.03;;
41875;SDS011;27555;50.808;4.402;2023-05-07T10:07:54;5.88;;;1.77;;
41875;SDS011;27555;50.808;4.402;2023-05-07T10:10:20;5.22;;;2.05;;
41875;SDS011;27555;50.808;4.402;2023-05-07T10:12:47;5.15;;;1.75;;
41875;SDS011;27555;50.808;4.402;2023-05-07T10:15:13;6.32;;;2.25;;
41875;SDS011;27555;50.808;4.402;2023-05-07T10:17:40;6.00;;;2.08;;
41875;SDS011;27555;50.808;4.402;2023-05-07T10:20:06;5.43;;;1.80;;
41875;SDS011;27555;50.808;4.402;2023-05-07T10:22:37;6.78;;;1.65;;
41875;SDS011;27555;50.808;4.402;2023-05-07T10:25:06;5.38;;;1.50;;
41875;SDS011;27555;50.808;4.402;2023-05-07T10:27:46;5.70;;;1.70;;
41875;SDS011;27555;50.808;4.402;2023-05-07T10:30:18;4.45;;;1.63;;
41875;SDS011;27555;50.808;4.402;2023-05-07T10:32:56;5.32;;;1.73;;
41875;SDS011;27555;50.808;4.402;2023-05-07T10:35:31;4.78;;;1.60;;
41875;SDS011;27555;50.808;4.402;2023-05-07T10:38:02;4.35;;;1.85;;
41875;SDS011;27555;50.808;4.402;2023-05-07T10:40:29;5.18;;;2.10;;
41875;SDS011;27555;50.808;4.402;2023-05-07T10:43:00;4.53;;;1.63;;
41875;SDS011;27555;50.808;4.402;2023-05-07T10:45:30;5.20;;;1.90;;
41875;SDS011;27555;50.808;4.402;2023-05-07T10:50:38;4.38;;;1.65;;
41875;SDS011;27555;50.808;4.402;2023-05-07T10:55:42;3.00;;;1.48;;
41875;SDS011;27555;50.808;4.402;2023-05-07T11:00:46;6.60;;;1.58;;
41875;SDS011;27555;50.808;4.402;2023-05-07T11:03:13;6.30;;;2.05;;
41875;SDS011;27555;50.808;4.402;2023-05-07T11:05:40;5.88;;;1.27;;
41875;SDS011;27555;50.808;4.402;2023-05-07T11:08:07;5.25;;;1.70;;
41875;SDS011;27555;50.808;4.402;2023-05-07T11:13:19;6.47;;;2.15;;
41875;SDS011;27555;50.808;4.402;2023-05-07T11:16:17;4.32;;;1.30;;
41875;SDS011;27555;50.808;4.402;2023-05-07T11:18:48;6.15;;;2.10;;
41875;SDS011;27555;50.808;4.402;2023-05-07T11:21:31;3.22;;;1.40;;
41875;SDS011;27555;50.808;4.402;2023-05-07T11:24:00;4.68;;;2.00;;
41875;SDS011;27555;50.808;4.402;2023-05-07T11:26:27;6.18;;;1.55;;
41875;SDS011;27555;50.808;4.402;2023-05-07T11:28:55;5.35;;;1.60;;
41875;SDS011;27555;50.808;4.402;2023-05-07T11:31:22;4.80;;;1.60;;
41875;SDS011;27555;50.808;4.402;2023-05-07T11:33:51;4.75;;;1.80;;
41875;SDS011;27555;50.808;4.402;2023-05-07T11:36:17;6.18;;;2.30;;
41875;SDS011;27555;50.808;4.402;2023-05-07T11:38:44;4.80;;;1.55;;
41875;SDS011;27555;50.808;4.402;2023-05-07T11:41:09;4.75;;;1.83;;
41875;SDS011;27555;50.808;4.402;2023-05-07T11:43:35;6.72;;;2.10;;
41875;SDS011;27555;50.808;4.402;2023-05-07T11:46:10;4.93;;;1.80;;
41875;SDS011;27555;50.808;4.402;2023-05-07T11:48:37;2.53;;;1.40;;
41875;SDS011;27555;50.808;4.402;2023-05-07T11:51:08;4.28;;;1.88;;
41875;SDS011;27555;50.808;4.402;2023-05-07T11:53:40;4.78;;;2.15;;
41875;SDS011;27555;50.808;4.402;2023-05-07T11:56:14;5.63;;;1.50;;
41875;SDS011;27555;50.808;4.402;2023-05-07T11:58:41;3.20;;;1.50;;
41875;SDS011;27555;50.808;4.402;2023-05-07T12:01:09;5.22;;;1.73;;
41875;SDS011;27555;50.808;4.402;2023-05-07T12:03:45;5.35;;;1.77;;
41875;SDS011;27555;50.808;4.402;2023-05-07T12:06:11;3.83;;;1.65;;
41875;SDS011;27555;50.808;4.402;2023-05-07T12:08:38;7.55;;;1.90;;
41875;SDS011;27555;50.808;4.402;2023-05-07T12:11:09;3.47;;;1.52;;
41875;SDS011;27555;50.808;4.402;2023-05-07T12:13:37;3.50;;;1.10;;
41875;SDS011;27555;50.808;4.402;2023-05-07T12:16:03;3.13;;;1.48;;
41875;SDS011;27555;50.808;4.402;2023-05-07T12:18:30;4.03;;;1.65;;
41875;SDS011;27555;50.808;4.402;2023-05-07T12:20:56;5.88;;;1.33;;
41875;SDS011;27555;50.808;4.402;2023-05-07T12:23:22;2.90;;;1.80;;
41875;SDS011;27555;50.808;4.402;2023-05-07T12:25:48;8.75;;;1.88;;
41875;SDS011;27555;50.808;4.402;2023-05-07T12:28:15;4.00;;;1.60;;
41875;SDS011;27555;50.808;4.402;2023-05-07T12:30:42;2.75;;;1.50;;
41875;SDS011;27555;50.808;4.402;2023-05-07T12:33:09;3.42;;;1.35;;
41875;SDS011;27555;50.808;4.402;2023-05-07T12:35:41;4.68;;;1.63;;
41875;SDS011;27555;50.808;4.402;2023-05-07T12:38:12;3.30;;;1.40;;
41875;SDS011;27555;50.808;4.402;2023-05-07T12:40:39;4.82;;;1.67;;
41875;SDS011;27555;50.808;4.402;2023-05-07T12:43:06;5.30;;;2.22;;
41875;SDS011;27555;50.808;4.402;2023-05-07T12:45:38;4.72;;;1.88;;
41875;SDS011;27555;50.808;4.402;2023-05-07T12:48:06;3.40;;;1.40;;
41875;SDS011;27555;50.808;4.402;2023-05-07T12:50:34;4.85;;;1.73;;
41875;SDS011;27555;50.808;4.402;2023-05-07T12:53:00;3.85;;;2.05;;
41875;SDS011;27555;50.808;4.402;2023-05-07T12:55:30;2.50;;;1.80;;
41875;SDS011;27555;50.808;4.402;2023-05-07T12:58:00;4.57;;;1.90;;
41875;SDS011;27555;50.808;4.402;2023-05-07T13:00:36;5.32;;;2.00;;
41875;SDS011;27555;50.808;4.402;2023-05-07T13:03:03;4.07;;;2.20;;
41875;SDS011;27555;50.808;4.402;2023-05-07T13:05:30;4.40;;;2.33;;
41875;SDS011;27555;50.808;4.402;2023-05-07T13:07:56;5.68;;;3.40;;
41875;SDS011;27555;50.808;4.402;2023-05-07T13:10:23;3.25;;;2.60;;
41875;SDS011;27555;50.808;4.402;2023-05-07T13:12:51;6.03;;;4.43;;
41875;SDS011;27555;50.808;4.402;2023-05-07T13:15:17;4.95;;;3.58;;
41875;SDS011;27555;50.808;4.402;2023-05-07T13:17:43;4.43;;;3.80;;
41875;SDS011;27555;50.808;4.402;2023-05-07T13:20:09;6.32;;;3.90;;
41875;SDS011;27555;50.808;4.402;2023-05-07T13:22:36;5.25;;;3.85;;
41875;SDS011;27555;50.808;4.402;2023-05-07T13:25:02;5.60;;;4.32;;
41875;SDS011;27555;50.808;4.402;2023-05-07T13:27:28;6.30;;;4.70;;
41875;SDS011;27555;50.808;4.402;2023-05-07T13:29:55;7.78;;;4.53;;
41875;SDS011;27555;50.808;4.402;2023-05-07T13:32:22;9.77;;;5.40;;
41875;SDS011;27555;50.808;4.402;2023-05-07T13:34:48;5.30;;;4.00;;
41875;SDS011;27555;50.808;4.402;2023-05-07T13:37:14;7.03;;;4.68;;
41875;SDS011;27555;50.808;4.402;2023-05-07T13:39:39;7.10;;;4.72;;
41875;SDS011;27555;50.808;4.402;2023-05-07T13:42:06;9.77;;;4.95;;
41875;SDS011;27555;50.808;4.402;2023-05-07T13:44:32;7.45;;;6.18;;
41875;SDS011;27555;50.808;4.402;2023-05-07T13:46:58;6.88;;;5.47;;
41875;SDS011;27555;50.808;4.402;2023-05-07T13:49:23;10.57;;;5.95;;
41875;SDS011;27555;50.808;4.402;2023-05-07T13:51:49;9.13;;;6.85;;
41875;SDS011;27555;50.808;4.402;2023-05-07T13:54:15;8.20;;;5.40;;
41875;SDS011;27555;50.808;4.402;2023-05-07T13:56:40;6.70;;;5.97;;
41875;SDS011;27555;50.808;4.402;2023-05-07T13:59:06;11.07;;;6.40;;
41875;SDS011;27555;50.808;4.402;2023-05-07T14:01:32;10.05;;;7.05;;
41875;SDS011;27555;50.808;4.402;2023-05-07T14:04:03;7.70;;;5.95;;
41875;SDS011;27555;50.808;4.402;2023-05-07T14:06:29;8.63;;;6.65;;
41875;SDS011;27555;50.808;4.402;2023-05-07T14:08:55;10.18;;;6.68;;
41875;SDS011;27555;50.808;4.402;2023-05-07T14:11:22;8.73;;;6.60;;
41875;SDS011;27555;50.808;4.402;2023-05-07T14:13:48;8.30;;;5.88;;
41875;SDS011;27555;50.808;4.402;2023-05-07T14:16:14;9.88;;;6.78;;
41875;SDS011;27555;50.808;4.402;2023-05-07T14:18:40;8.13;;;6.45;;
41875;SDS011;27555;50.808;4.402;2023-05-07T14:21:06;10.05;;;5.55;;
41875;SDS011;27555;50.808;4.402;2023-05-07T14:23:32;10.80;;;6.97;;
41875;SDS011;27555;50.808;4.402;2023-05-07T14:25:58;8.98;;;5.97;;
41875;SDS011;27555;50.808;4.402;2023-05-07T14:28:23;9.27;;;6.38;;
41875;SDS011;27555;50.808;4.402;2023-05-07T14:30:49;10.63;;;6.90;;
41875;SDS011;27555;50.808;4.402;2023-05-07T14:33:15;7.65;;;5.65;;
41875;SDS011;27555;50.808;4.402;2023-05-07T14:35:40;7.18;;;5.20;;
41875;SDS011;27555;50.808;4.402;2023-05-07T14:38:06;7.30;;;5.80;;
41875;SDS011;27555;50.808;4.402;2023-05-07T14:40:32;9.15;;;5.63;;
41875;SDS011;27555;50.808;4.402;2023-05-07T14:42:57;8.02;;;5.65;;
41875;SDS011;27555;50.808;4.402;2023-05-07T14:45:23;9.40;;;5.20;;
41875;SDS011;27555;50.808;4.402;2023-05-07T14:47:49;10.60;;;5.40;;
41875;SDS011;27555;50.808;4.402;2023-05-07T14:50:14;7.13;;;4.80;;